KTOA/TOA METAR and TAF weather

Enter ICAO airport designator
Station Type Date Time Source
KTOA METAR 2020/03/31 13:47 UTC NOAA

KTOA 311347Z 21003KT 10SM SKC 10/10 A3007


Station Type Date Time Source
KTOA Decoded METAR 2020/03/31 13:47 UTC NOAA

Torrance, Zamperini Field Airport, CA, United States (KTOA) 33-48N 118-20W
Mar 31, 2020 - 09:47 AM EDT / 2020.03.31 1347 UTC
Wind: from the SSW (210 degrees) at 3 MPH (3 KT):0
Visibility: 10 mile(s):0
Sky conditions: clear
Temperature: 50 F (10 C)
Dew Point: 50 F (10 C)
Relative Humidity: 100%
Pressure (altimeter): 30.07 in. Hg (1018 hPa)
ob: KTOA 311347Z 21003KT 10SM SKC 10/10 A3007
cycle: 14

Station Type Date Time Source
KTOA TAF UTC NOAA

Error!

Example: see airport list